createdAt,value
2023-02-05T00:00:56.523Z,93.85
2023-02-05T00:01:56.530Z,95.88
2023-02-05T00:02:56.499Z,96.78
2023-02-05T00:03:56.505Z,96.54
2023-02-05T00:04:56.507Z,94.08
2023-02-05T00:05:56.512Z,92.00
2023-02-05T00:06:56.526Z,90.58
2023-02-05T00:07:56.520Z,88.22
2023-02-05T00:08:56.538Z,86.52
2023-02-05T00:09:56.529Z,85.57
2023-02-05T00:10:56.544Z,85.38
2023-02-05T00:11:56.537Z,85.57
2023-02-05T00:12:56.552Z,85.85
2023-02-05T00:13:56.586Z,85.76
2023-02-05T00:14:56.555Z,85.85
2023-02-05T00:15:56.658Z,85.66
2023-02-05T00:16:56.590Z,85.33
2023-02-05T00:17:56.592Z,85.52
2023-02-05T00:18:56.576Z,85.52
2023-02-05T00:19:56.579Z,85.99
2023-02-05T00:20:56.585Z,85.85
2023-02-05T00:21:56.588Z,85.90
2023-02-05T00:22:56.594Z,85.52
2023-02-05T00:23:56.606Z,84.77
2023-02-05T00:24:56.604Z,84.39
2023-02-05T00:25:56.607Z,84.10
2023-02-05T00:26:56.619Z,84.01
2023-02-05T00:27:56.663Z,84.48
2023-02-05T00:28:56.625Z,84.29
2023-02-05T00:29:56.626Z,84.48
2023-02-05T00:30:56.733Z,84.67
2023-02-05T00:31:56.647Z,84.20
2023-02-05T00:32:56.644Z,84.39
2023-02-05T00:33:56.667Z,84.20
2023-02-05T00:34:56.665Z,84.39
2023-02-05T00:35:56.655Z,83.97
2023-02-05T00:36:56.686Z,83.44
2023-02-05T00:37:56.667Z,83.06
2023-02-05T00:38:56.681Z,82.97
2023-02-05T00:39:56.681Z,83.49
2023-02-05T00:40:56.692Z,83.30
2023-02-05T00:41:56.686Z,82.73
2023-02-05T00:42:56.696Z,82.35
2023-02-05T00:43:56.703Z,82.02
2023-02-05T00:44:56.706Z,81.45
2023-02-05T00:45:56.772Z,81.17
2023-02-05T00:46:56.720Z,81.13
2023-02-05T00:47:56.714Z,80.98
2023-02-05T00:48:56.837Z,81.51
2023-02-05T00:49:56.758Z,80.84
2023-02-05T00:50:56.734Z,81.32
2023-02-05T00:51:56.737Z,81.55
2023-02-05T00:52:56.754Z,83.06
2023-02-05T00:53:56.764Z,85.90
2023-02-05T00:54:56.755Z,85.99
2023-02-05T00:55:56.771Z,86.37
2023-02-05T00:56:56.764Z,85.28
2023-02-05T00:57:56.767Z,84.91
2023-02-05T00:58:56.774Z,84.44
2023-02-05T00:59:56.773Z,84.63
2023-02-05T01:00:56.787Z,84.39
2023-02-05T01:01:56.785Z,84.25
2023-02-05T01:02:56.794Z,84.72
2023-02-05T01:03:56.794Z,84.53
2023-02-05T01:04:56.804Z,85.10
2023-02-05T01:05:56.826Z,85.10
2023-02-05T01:06:56.835Z,84.53
2023-02-05T01:07:56.817Z,84.67
2023-02-05T01:08:56.829Z,84.34
2023-02-05T01:09:56.828Z,84.34
2023-02-05T01:10:56.833Z,83.02
2023-02-05T01:11:56.843Z,81.13
2023-02-05T01:12:56.854Z,79.80
2023-02-05T01:13:56.853Z,78.90
2023-02-05T01:14:56.855Z,78.10
2023-02-05T01:15:56.870Z,77.72
2023-02-05T01:16:56.866Z,77.86
2023-02-05T01:17:56.876Z,77.86
2023-02-05T01:18:56.902Z,78.33
2023-02-05T01:19:56.875Z,78.05
2023-02-05T01:20:56.883Z,77.01
2023-02-05T01:21:57.104Z,76.63
2023-02-05T01:22:56.894Z,76.06
2023-02-05T01:23:56.901Z,76.31
2023-02-05T01:24:56.909Z,77.15
2023-02-05T01:25:56.912Z,76.97
2023-02-05T01:26:56.915Z,77.44
2023-02-05T01:27:56.950Z,76.87
2023-02-05T01:28:56.924Z,76.68
2023-02-05T01:29:56.932Z,76.50
2023-02-05T01:30:57.049Z,76.40
2023-02-05T01:31:56.992Z,75.64
2023-02-05T01:32:56.951Z,76.50
2023-02-05T01:33:56.960Z,78.20
2023-02-05T01:34:56.953Z,79.80
2023-02-05T01:35:56.953Z,80.75
2023-02-05T01:36:56.961Z,81.51
2023-02-05T01:37:56.989Z,81.32
2023-02-05T01:38:56.972Z,80.75
2023-02-05T01:39:56.971Z,80.65
2023-02-05T01:40:56.977Z,79.90
2023-02-05T01:41:56.982Z,78.58
2023-02-05T01:42:56.989Z,77.01
2023-02-05T01:43:56.987Z,76.63
2023-02-05T01:44:56.996Z,75.36
2023-02-05T01:45:56.999Z,74.36
2023-02-05T01:46:57.009Z,74.64
2023-02-05T01:47:57.028Z,74.36
2023-02-05T01:48:57.026Z,74.83
2023-02-05T01:49:57.017Z,74.26
2023-02-05T01:50:57.024Z,73.98
2023-02-05T01:51:57.033Z,73.32
2023-02-05T01:52:57.032Z,72.85
2023-02-05T01:53:57.055Z,72.47
2023-02-05T01:54:57.065Z,71.99
2023-02-05T01:55:57.052Z,71.04
2023-02-05T01:56:57.051Z,70.48
2023-02-05T01:57:57.054Z,70.67
2023-02-05T01:58:57.062Z,70.95
2023-02-05T01:59:57.062Z,71.90
2023-02-05T02:00:57.070Z,72.37
2023-02-05T02:01:57.210Z,73.22
2023-02-05T02:02:57.081Z,72.18
2023-02-05T02:03:57.091Z,71.42
2023-02-05T02:04:57.125Z,70.67
2023-02-05T02:05:57.098Z,70.29
2023-02-05T02:06:57.110Z,70.76
2023-02-05T02:07:57.105Z,70.39
2023-02-05T02:08:57.107Z,70.10
2023-02-05T02:09:57.128Z,69.44
2023-02-05T02:10:57.121Z,69.53
2023-02-05T02:11:57.124Z,69.34
2023-02-05T02:12:57.129Z,69.82
2023-02-05T02:13:57.134Z,70.67
2023-02-05T02:14:57.142Z,70.76
2023-02-05T02:15:57.170Z,71.33
2023-02-05T02:16:57.151Z,70.67
2023-02-05T02:17:57.156Z,70.67
2023-02-05T02:18:57.159Z,70.48
2023-02-05T02:19:57.163Z,72.28
2023-02-05T02:20:57.180Z,76.40
2023-02-05T02:21:57.170Z,77.91
2023-02-05T02:22:57.180Z,77.82
2023-02-05T02:23:57.179Z,76.31
2023-02-05T02:24:57.188Z,74.60
2023-02-05T02:25:57.209Z,73.28
2023-02-05T02:26:57.198Z,71.30
2023-02-05T02:27:57.218Z,70.16
2023-02-05T02:28:57.205Z,69.68
2023-02-05T02:29:57.214Z,69.31
2023-02-05T02:30:57.372Z,69.21
2023-02-05T02:31:57.220Z,69.34
2023-02-05T02:32:57.229Z,68.59
2023-02-05T02:33:57.229Z,68.02
2023-02-05T02:34:57.233Z,68.30
2023-02-05T02:35:57.235Z,67.83
2023-02-05T02:36:57.249Z,68.02
2023-02-05T02:37:57.246Z,68.02
2023-02-05T02:38:57.356Z,68.21
2023-02-05T02:39:57.256Z,67.17
2023-02-05T02:40:57.262Z,66.22
2023-02-05T02:41:57.283Z,64.04
2023-02-05T02:42:57.278Z,61.96
2023-02-05T02:43:57.277Z,62.63
2023-02-05T02:44:57.280Z,66.50
2023-02-05T02:45:57.284Z,68.96
2023-02-05T02:46:57.293Z,68.87
2023-02-05T02:47:57.293Z,67.45
2023-02-05T02:48:58.341Z,65.66
2023-02-05T02:49:57.306Z,64.33
2023-02-05T02:50:57.315Z,63.48
2023-02-05T02:51:57.314Z,61.68
2023-02-05T02:52:57.325Z,60.83
2023-02-05T02:53:57.323Z,60.07
2023-02-05T02:54:57.342Z,63.57
2023-02-05T02:55:57.336Z,68.40
2023-02-05T02:56:57.343Z,71.14
2023-02-05T02:57:57.365Z,72.56
2023-02-05T02:58:57.354Z,73.28
2023-02-05T02:59:57.354Z,73.66
2023-02-05T03:00:57.521Z,74.13
2023-02-05T03:01:57.363Z,74.51
2023-02-05T03:02:57.375Z,74.41
2023-02-05T03:03:57.436Z,74.04
2023-02-05T03:04:57.387Z,73.75
2023-02-05T03:05:57.383Z,73.47
2023-02-05T03:06:57.392Z,71.86
2023-02-05T03:07:57.394Z,70.54
2023-02-05T03:08:57.400Z,69.31
2023-02-05T03:09:57.402Z,67.98
2023-02-05T03:10:57.410Z,67.22
2023-02-05T03:11:57.411Z,67.51
2023-02-05T03:12:57.424Z,67.70
2023-02-05T03:13:57.561Z,67.60
2023-02-05T03:14:57.426Z,66.94
2023-02-05T03:15:57.452Z,65.91
2023-02-05T03:16:57.446Z,65.62
2023-02-05T03:17:57.779Z,63.26
2023-02-05T03:18:57.451Z,62.21
2023-02-05T03:19:57.447Z,62.21
2023-02-05T03:20:57.460Z,63.92
2023-02-05T03:21:57.468Z,64.04
2023-02-05T03:22:57.468Z,63.67
2023-02-05T03:23:57.476Z,64.33
2023-02-05T03:24:57.474Z,64.80
2023-02-05T03:25:57.497Z,65.18
2023-02-05T03:26:57.482Z,66.03
2023-02-05T03:27:57.535Z,66.13
2023-02-05T03:28:57.592Z,65.66
2023-02-05T03:29:57.523Z,66.22
2023-02-05T03:30:57.538Z,66.22
2023-02-05T03:31:57.516Z,64.61
2023-02-05T03:32:57.513Z,65.18
2023-02-05T03:33:57.525Z,64.99
2023-02-05T03:34:57.518Z,65.84
2023-02-05T03:35:57.520Z,66.50
2023-02-05T03:36:57.527Z,66.13
2023-02-05T03:37:57.530Z,65.56
2023-02-05T03:38:57.544Z,65.47
2023-02-05T03:39:57.538Z,65.84
2023-02-05T03:40:57.552Z,66.13
2023-02-05T03:41:57.598Z,66.31
2023-02-05T03:42:57.561Z,65.72
2023-02-05T03:43:57.560Z,65.28
2023-02-05T03:44:57.564Z,63.95
2023-02-05T03:45:57.640Z,63.67
2023-02-05T03:46:57.578Z,64.52
2023-02-05T03:47:57.573Z,64.42
2023-02-05T03:48:57.584Z,64.99
2023-02-05T03:49:57.584Z,68.27
2023-02-05T03:50:57.590Z,71.95
2023-02-05T03:51:57.591Z,70.92
2023-02-05T03:52:57.603Z,69.49
2023-02-05T03:53:57.620Z,68.08
2023-02-05T03:54:57.611Z,67.13
2023-02-05T03:55:57.607Z,67.70
2023-02-05T03:56:57.615Z,67.89
2023-02-05T03:57:57.619Z,68.08
2023-02-05T03:58:57.624Z,68.46
2023-02-05T03:59:57.620Z,68.27
2023-02-05T04:00:57.641Z,67.79
2023-02-05T04:01:57.687Z,67.03
2023-02-05T04:02:57.645Z,66.66
2023-02-05T04:03:57.646Z,65.53
2023-02-05T04:04:57.646Z,65.15
2023-02-05T04:05:57.651Z,65.05
2023-02-05T04:06:57.657Z,65.81
2023-02-05T04:07:57.677Z,66.47
2023-02-05T04:08:57.664Z,67.03
2023-02-05T04:09:57.674Z,67.22
2023-02-05T04:10:57.670Z,68.74
2023-02-05T04:11:57.676Z,69.40
2023-02-05T04:12:57.678Z,68.74
2023-02-05T04:13:57.684Z,68.27
2023-02-05T04:14:57.691Z,68.65
2023-02-05T04:15:57.695Z,68.46
2023-02-05T04:16:57.698Z,68.55
2023-02-05T04:17:57.723Z,68.74
2023-02-05T04:18:57.705Z,68.65
2023-02-05T04:19:57.707Z,69.02
2023-02-05T04:20:57.711Z,69.68
2023-02-05T04:21:57.719Z,70.20
2023-02-05T04:22:57.721Z,70.57
2023-02-05T04:23:57.779Z,70.29
2023-02-05T04:24:57.732Z,69.53
2023-02-05T04:25:57.732Z,69.34
2023-02-05T04:26:57.736Z,69.06
2023-02-05T04:27:57.809Z,68.59
2023-02-05T04:28:57.759Z,69.25
2023-02-05T04:29:57.767Z,69.44
2023-02-05T04:30:57.794Z,69.53
2023-02-05T04:31:57.818Z,69.25
2023-02-05T04:32:57.768Z,69.72
2023-02-05T04:33:57.913Z,69.72
2023-02-05T04:34:57.781Z,69.53
2023-02-05T04:35:57.782Z,69.34
2023-02-05T04:36:57.788Z,69.72
2023-02-05T04:37:57.796Z,69.91
2023-02-05T04:38:57.792Z,69.82
2023-02-05T04:39:57.801Z,70.20
2023-02-05T04:40:57.806Z,70.10
2023-02-05T04:41:57.813Z,70.01
2023-02-05T04:42:57.812Z,70.01
2023-02-05T04:43:57.819Z,70.76
2023-02-05T04:44:57.820Z,71.33
2023-02-05T04:45:57.865Z,71.42
2023-02-05T04:46:57.834Z,71.61
2023-02-05T04:47:57.843Z,71.23
2023-02-05T04:48:57.841Z,70.86
2023-02-05T04:49:57.875Z,70.39
2023-02-05T04:50:57.861Z,70.95
2023-02-05T04:51:57.857Z,70.57
2023-02-05T04:52:57.857Z,72.56
2023-02-05T04:53:57.867Z,74.69
2023-02-05T04:54:57.889Z,76.50
2023-02-05T04:55:57.880Z,76.50
2023-02-05T04:56:57.878Z,75.74
2023-02-05T04:57:57.886Z,74.51
2023-02-05T04:58:57.991Z,73.85
2023-02-05T04:59:57.897Z,73.09
2023-02-05T05:00:57.920Z,73.18
2023-02-05T05:01:57.903Z,73.37
2023-02-05T05:02:57.901Z,74.69
2023-02-05T05:03:57.923Z,75.74
2023-02-05T05:04:57.915Z,76.50
2023-02-05T05:05:57.939Z,77.15
2023-02-05T05:06:57.919Z,77.72
2023-02-05T05:07:57.941Z,77.91
2023-02-05T05:08:57.932Z,79.61
2023-02-05T05:09:57.936Z,82.64
2023-02-05T05:10:57.944Z,82.79
2023-02-05T05:11:57.945Z,80.62
2023-02-05T05:12:57.964Z,79.67
2023-02-05T05:13:57.961Z,79.00
2023-02-05T05:14:57.960Z,79.00
2023-02-05T05:15:57.984Z,79.10
2023-02-05T05:16:57.963Z,79.95
2023-02-05T05:17:57.971Z,81.09
2023-02-05T05:18:57.972Z,81.93
2023-02-05T05:19:57.986Z,79.86
2023-02-05T05:20:57.982Z,78.53
2023-02-05T05:21:58.005Z,77.02
2023-02-05T05:22:57.989Z,77.15
2023-02-05T05:23:57.998Z,76.97
2023-02-05T05:24:57.996Z,76.59
2023-02-05T05:25:58.008Z,76.87
2023-02-05T05:26:58.005Z,76.97
2023-02-05T05:27:58.038Z,76.97
2023-02-05T05:28:58.012Z,76.59
2023-02-05T05:29:58.019Z,75.64
2023-02-05T05:30:58.080Z,75.45
2023-02-05T05:31:58.063Z,74.88
2023-02-05T05:32:58.055Z,74.13
2023-02-05T05:33:58.039Z,74.32
2023-02-05T05:34:58.037Z,73.94
2023-02-05T05:35:58.046Z,72.80
2023-02-05T05:36:58.048Z,72.86
2023-02-05T05:37:58.075Z,72.14
2023-02-05T05:38:58.055Z,71.58
2023-02-05T05:39:58.064Z,71.48
2023-02-05T05:40:58.065Z,71.86
2023-02-05T05:41:58.075Z,72.52
2023-02-05T05:42:58.076Z,71.39
2023-02-05T05:43:58.077Z,70.82
2023-02-05T05:44:58.099Z,71.30
2023-02-05T05:45:58.121Z,71.48
2023-02-05T05:46:58.091Z,72.05
2023-02-05T05:47:58.095Z,72.99
2023-02-05T05:48:58.097Z,72.14
2023-02-05T05:49:58.103Z,71.30
2023-02-05T05:50:58.107Z,70.73
2023-02-05T05:51:58.112Z,70.54
2023-02-05T05:52:58.115Z,72.62
2023-02-05T05:53:58.142Z,76.87
2023-02-05T05:54:58.122Z,78.29
2023-02-05T05:55:58.149Z,78.58
2023-02-05T05:56:58.137Z,78.16
2023-02-05T05:57:58.135Z,77.78
2023-02-05T05:58:58.138Z,77.87
2023-02-05T05:59:58.143Z,78.25
2023-02-05T06:00:58.153Z,79.19
2023-02-05T06:01:58.149Z,79.67
2023-02-05T06:02:58.152Z,78.53
2023-02-05T06:03:58.168Z,77.87
2023-02-05T06:04:58.181Z,77.02
2023-02-05T06:05:58.203Z,76.55
2023-02-05T06:06:58.180Z,76.93
2023-02-05T06:07:58.172Z,77.87
2023-02-05T06:08:58.174Z,77.02
2023-02-05T06:09:58.216Z,77.31
2023-02-05T06:10:58.186Z,77.31
2023-02-05T06:11:58.194Z,76.74
2023-02-05T06:12:58.194Z,76.64
2023-02-05T06:13:58.203Z,77.02
2023-02-05T06:14:58.208Z,79.10
2023-02-05T06:15:58.269Z,80.71
2023-02-05T06:16:58.205Z,78.91
2023-02-05T06:17:58.211Z,78.34
2023-02-05T06:18:58.219Z,77.50
2023-02-05T06:19:58.225Z,76.83
2023-02-05T06:20:58.218Z,76.93
2023-02-05T06:21:58.233Z,77.78
2023-02-05T06:22:58.230Z,77.87
2023-02-05T06:23:58.238Z,78.81
2023-02-05T06:24:58.238Z,78.72
2023-02-05T06:25:58.265Z,78.72
2023-02-05T06:26:58.243Z,78.91
2023-02-05T06:27:58.291Z,78.72
2023-02-05T06:28:58.251Z,77.87
2023-02-05T06:29:58.273Z,77.31
2023-02-05T06:30:58.333Z,77.69
2023-02-05T06:31:58.307Z,77.69
2023-02-05T06:32:58.265Z,78.91
2023-02-05T06:33:58.279Z,80.24
2023-02-05T06:34:58.284Z,79.57
2023-02-05T06:35:58.282Z,78.44
2023-02-05T06:36:58.284Z,77.87
2023-02-05T06:37:58.293Z,77.21
2023-02-05T06:38:58.298Z,76.74
2023-02-05T06:39:58.332Z,76.93
2023-02-05T06:40:58.303Z,77.02
2023-02-05T06:41:58.327Z,76.74
2023-02-05T06:42:58.308Z,78.25
2023-02-05T06:43:58.320Z,78.44
2023-02-05T06:44:58.319Z,78.72
2023-02-05T06:45:58.324Z,78.44
2023-02-05T06:46:58.326Z,77.97
2023-02-05T06:47:58.346Z,77.87
2023-02-05T06:48:58.335Z,77.97
2023-02-05T06:49:58.360Z,78.16
2023-02-05T06:50:58.341Z,77.87
2023-02-05T06:51:58.348Z,77.87
2023-02-05T06:52:58.353Z,76.93
2023-02-05T06:53:58.369Z,77.12
2023-02-05T06:54:58.354Z,77.40
2023-02-05T06:55:58.365Z,77.21
2023-02-05T06:56:58.360Z,77.12
2023-02-05T06:57:58.477Z,77.12
2023-02-05T06:58:58.370Z,77.21
2023-02-05T06:59:58.379Z,77.21
2023-02-05T07:00:58.391Z,76.93
2023-02-05T07:01:58.494Z,77.12
2023-02-05T07:02:58.433Z,77.31
2023-02-05T07:03:58.394Z,77.12
2023-02-05T07:04:58.395Z,76.93
2023-02-05T07:05:58.401Z,77.12
2023-02-05T07:06:58.405Z,76.64
2023-02-05T07:07:58.414Z,76.93
2023-02-05T07:08:58.416Z,77.21
2023-02-05T07:09:58.421Z,77.21
2023-02-05T07:10:58.442Z,77.12
2023-02-05T07:11:58.426Z,77.12
2023-02-05T07:12:58.452Z,77.31
2023-02-05T07:13:58.452Z,77.59
2023-02-05T07:14:58.439Z,78.25
2023-02-05T07:15:58.472Z,78.72
2023-02-05T07:16:58.444Z,78.81
2023-02-05T07:17:58.452Z,78.34
2023-02-05T07:18:58.451Z,78.16
2023-02-05T07:19:58.457Z,78.53
2023-02-05T07:20:58.459Z,78.06
2023-02-05T07:21:58.471Z,78.53
2023-02-05T07:22:58.468Z,78.06
2023-02-05T07:23:58.493Z,77.78
2023-02-05T07:24:58.474Z,77.78
2023-02-05T07:25:58.484Z,77.21
2023-02-05T07:26:58.485Z,77.12
2023-02-05T07:27:58.530Z,77.59
2023-02-05T07:28:58.490Z,77.40
2023-02-05T07:29:58.533Z,77.69
2023-02-05T07:31:00.234Z,78.53
2023-02-05T07:31:58.527Z,78.06
2023-02-05T07:32:58.506Z,78.81
2023-02-05T07:33:58.516Z,79.10
2023-02-05T07:34:58.515Z,77.87
2023-02-05T07:35:58.521Z,77.87
2023-02-05T07:36:58.520Z,78.63
2023-02-05T07:37:58.526Z,77.78
2023-02-05T07:38:58.529Z,77.40
2023-02-05T07:39:58.536Z,76.93
2023-02-05T07:40:58.534Z,76.45
2023-02-05T07:41:58.548Z,76.07
2023-02-05T07:42:58.539Z,76.55
2023-02-05T07:43:58.546Z,76.45
2023-02-05T07:44:58.563Z,77.40
2023-02-05T07:45:58.577Z,77.21
2023-02-05T07:46:58.553Z,77.02
2023-02-05T07:47:58.563Z,77.12
2023-02-05T07:48:58.563Z,77.02
2023-02-05T07:49:58.566Z,76.93
2023-02-05T07:50:58.581Z,76.93
2023-02-05T07:51:58.577Z,77.21
2023-02-05T07:52:58.579Z,77.21
2023-02-05T07:53:58.581Z,77.59
2023-02-05T07:54:58.591Z,77.21
2023-02-05T07:55:58.600Z,77.87
2023-02-05T07:56:58.589Z,77.97
2023-02-05T07:57:58.597Z,77.40
2023-02-05T07:58:58.597Z,76.93
2023-02-05T07:59:58.604Z,75.23
2023-02-05T08:00:58.641Z,74.28
2023-02-05T08:01:58.637Z,73.85
2023-02-05T08:02:58.614Z,73.37
2023-02-05T08:03:58.659Z,72.52
2023-02-05T08:04:58.621Z,72.52
2023-02-05T08:05:58.639Z,72.24
2023-02-05T08:06:58.640Z,72.24
2023-02-05T08:07:58.649Z,71.77
2023-02-05T08:08:58.635Z,71.39
2023-02-05T08:09:58.650Z,71.30
2023-02-05T08:10:58.642Z,71.86
2023-02-05T08:11:58.664Z,72.52
2023-02-05T08:12:58.651Z,72.90
2023-02-05T08:13:58.656Z,72.24
2023-02-05T08:14:58.661Z,71.95
2023-02-05T08:15:58.737Z,71.58
2023-02-05T08:16:58.671Z,71.95
2023-02-05T08:17:58.692Z,72.43
2023-02-05T08:18:58.694Z,72.33
2023-02-05T08:19:58.684Z,71.58
2023-02-05T08:20:58.695Z,71.67
2023-02-05T08:21:58.693Z,71.67
2023-02-05T08:22:58.696Z,71.30
2023-02-05T08:23:58.719Z,71.39
2023-02-05T08:24:58.705Z,71.48
2023-02-05T08:25:58.702Z,71.77
2023-02-05T08:26:58.715Z,71.58
2023-02-05T08:27:58.725Z,72.18
2023-02-05T08:28:58.720Z,71.42
2023-02-05T08:29:58.725Z,71.42
2023-02-05T08:30:58.791Z,72.56
2023-02-05T08:31:58.735Z,72.47
2023-02-05T08:32:58.738Z,70.67
2023-02-05T08:33:58.758Z,71.23
2023-02-05T08:34:58.755Z,72.50
2023-02-05T08:35:58.749Z,74.68
2023-02-05T08:36:58.753Z,77.51
2023-02-05T08:37:58.756Z,74.96
2023-02-05T08:38:58.770Z,75.81
2023-02-05T08:39:58.769Z,80.93
2023-02-05T08:40:58.781Z,83.48
2023-02-05T08:41:58.871Z,82.91
2023-02-05T08:42:58.780Z,80.26
2023-02-05T08:43:58.779Z,78.75
2023-02-05T08:44:58.791Z,79.41
2023-02-05T08:45:58.823Z,80.55
2023-02-05T08:46:58.803Z,79.98
2023-02-05T08:47:58.832Z,79.69
2023-02-05T08:48:58.818Z,81.40
2023-02-05T08:49:58.837Z,81.59
2023-02-05T08:50:58.818Z,80.36
2023-02-05T08:51:58.819Z,80.26
2023-02-05T08:52:58.826Z,79.98
2023-02-05T08:53:58.829Z,79.60
2023-02-05T08:54:58.837Z,79.32
2023-02-05T08:55:58.840Z,84.42
2023-02-05T08:56:58.843Z,85.75
2023-02-05T08:57:58.852Z,86.04
2023-02-05T08:58:58.858Z,85.09
2023-02-05T08:59:58.864Z,84.42
2023-02-05T09:00:58.922Z,82.15
2023-02-05T09:01:58.869Z,79.50
2023-02-05T09:02:58.878Z,75.19
2023-02-05T09:03:58.885Z,72.82
2023-02-05T09:05:08.026Z,70.45
2023-02-05T09:05:58.917Z,68.84
2023-02-05T09:06:58.896Z,76.08
2023-02-05T09:07:58.899Z,78.26
2023-02-05T09:08:58.907Z,78.35
2023-02-05T09:09:58.908Z,74.66
2023-02-05T09:10:58.916Z,71.34
2023-02-05T09:11:58.928Z,70.58
2023-02-05T09:12:58.929Z,76.87
2023-02-05T09:13:58.930Z,82.66
2023-02-05T09:14:58.939Z,83.89
2023-02-05T09:15:58.940Z,83.42
2023-02-05T09:16:58.949Z,81.05
2023-02-05T09:17:58.952Z,80.48
2023-02-05T09:18:58.965Z,80.14
2023-02-05T09:19:58.972Z,83.27
2023-02-05T09:20:58.977Z,82.79
2023-02-05T09:21:59.000Z,74.11
2023-02-05T09:22:58.988Z,65.91
2023-02-05T09:23:58.990Z,66.71
2023-02-05T09:24:58.999Z,72.74
2023-02-05T09:25:59.014Z,78.72
2023-02-05T09:26:59.019Z,82.23
2023-02-05T09:27:59.065Z,83.17
2023-02-05T09:28:59.027Z,83.27
2023-02-05T09:29:59.160Z,85.03
2023-02-05T09:30:59.141Z,85.93
2023-02-05T09:31:59.048Z,85.17
2023-02-05T09:32:59.055Z,85.83
2023-02-05T09:33:59.177Z,86.59
2023-02-05T09:34:59.070Z,85.83
2023-02-05T09:35:59.078Z,76.29
2023-02-05T09:36:59.109Z,63.48
2023-02-05T09:37:59.112Z,65.37
2023-02-05T09:39:12.980Z,71.17
2023-02-05T09:40:22.661Z,75.91
2023-02-05T09:40:59.122Z,78.38
2023-02-05T09:41:59.119Z,82.08
2023-02-05T09:42:59.188Z,83.12
2023-02-05T09:43:59.132Z,81.60
2023-02-05T09:44:59.141Z,71.26
2023-02-05T09:45:59.174Z,66.52
2023-02-05T09:46:59.159Z,65.88
2023-02-05T09:47:59.169Z,68.64
2023-02-05T09:48:59.168Z,72.09
2023-02-05T09:49:59.181Z,73.48
2023-02-05T09:50:59.190Z,63.32
2023-02-05T09:51:59.191Z,59.52
2023-02-05T09:52:59.203Z,55.91
2023-02-05T09:53:59.232Z,55.76
2023-02-05T09:54:59.219Z,49.96
2023-02-05T09:55:59.220Z,48.06
2023-02-05T09:56:59.240Z,55.11
2023-02-05T09:57:59.249Z,59.65
2023-02-05T09:58:59.276Z,69.91
2023-02-05T09:59:59.256Z,74.66
2023-02-05T10:00:59.320Z,75.42
2023-02-05T10:01:59.269Z,76.56
2023-02-05T10:02:59.287Z,75.23
2023-02-05T10:03:59.332Z,76.27
2023-02-05T10:04:59.297Z,75.32
2023-02-05T10:05:59.300Z,78.78
2023-02-05T10:06:59.314Z,77.92
2023-02-05T10:07:59.315Z,77.12
2023-02-05T10:08:59.331Z,76.61
2023-02-05T10:09:59.356Z,78.13
2023-02-05T10:10:59.344Z,75.13
2023-02-05T10:11:59.352Z,68.96
2023-02-05T10:12:59.469Z,65.35
2023-02-05T10:13:59.369Z,63.76
2023-02-05T10:14:59.381Z,65.86
2023-02-05T10:15:59.551Z,66.24
2023-02-05T10:16:59.396Z,63.42
2023-02-05T10:17:59.403Z,58.00
2023-02-05T10:18:59.416Z,53.81
2023-02-05T10:19:59.421Z,49.63
2023-02-05T10:20:59.433Z,52.20
2023-02-05T10:21:59.437Z,62.43
2023-02-05T10:22:59.467Z,68.39
2023-02-05T10:23:59.485Z,72.09
2023-02-05T10:24:59.569Z,74.27
2023-02-05T10:25:59.514Z,75.19
2023-02-05T10:26:59.495Z,76.76
2023-02-05T10:27:59.545Z,80.18
2023-02-05T10:28:59.578Z,81.74
2023-02-05T10:29:59.565Z,80.75
2023-02-05T10:30:59.642Z,80.69
2023-02-05T10:31:59.545Z,80.64
2023-02-05T10:32:59.547Z,78.83
2023-02-05T10:33:59.686Z,76.21
2023-02-05T10:34:59.591Z,74.60
2023-02-05T10:35:59.579Z,74.26
2023-02-05T10:36:59.588Z,66.65
2023-02-05T10:37:59.592Z,58.83
2023-02-05T10:38:59.605Z,57.50
2023-02-05T10:39:59.617Z,61.29
2023-02-05T10:41:00.619Z,67.63
2023-02-05T10:41:59.662Z,71.62
2023-02-05T10:42:59.646Z,61.77
2023-02-05T10:43:59.671Z,60.44
2023-02-05T10:44:59.666Z,65.54
2023-02-05T10:45:59.907Z,64.81
2023-02-05T10:46:59.682Z,68.17
2023-02-05T10:47:59.690Z,70.51
2023-02-05T10:48:59.752Z,73.14
2023-02-05T10:49:59.724Z,74.66
2023-02-05T10:50:59.726Z,75.13
2023-02-05T10:51:59.733Z,76.75
2023-02-05T10:52:59.743Z,75.26
2023-02-05T10:53:59.757Z,75.64
2023-02-05T10:54:59.763Z,76.31
2023-02-05T10:55:59.771Z,74.63
2023-02-05T10:56:59.791Z,74.22
2023-02-05T10:57:59.815Z,73.36
2023-02-05T10:58:59.820Z,69.12
2023-02-05T10:59:59.873Z,71.31
2023-02-05T11:00:59.831Z,72.92
2023-02-05T11:01:59.870Z,74.63
2023-02-05T11:02:59.900Z,74.56
2023-02-05T11:03:59.856Z,76.27
2023-02-05T11:04:59.879Z,78.36
2023-02-05T11:05:59.873Z,78.36
2023-02-05T11:06:59.886Z,78.83
2023-02-05T11:07:59.896Z,77.70
2023-02-05T11:08:59.911Z,79.61
2023-02-05T11:09:59.922Z,82.17
2023-02-05T11:10:59.933Z,83.07
2023-02-05T11:11:59.937Z,81.17
2023-02-05T11:12:59.950Z,80.74
2023-02-05T11:13:59.979Z,80.83
2023-02-05T11:14:59.983Z,76.35
2023-02-05T11:15:59.993Z,75.04
2023-02-05T11:16:59.999Z,78.27
2023-02-05T11:18:00.002Z,76.18
2023-02-05T11:19:00.064Z,78.27
2023-02-05T11:20:00.066Z,78.45
2023-02-05T11:21:00.033Z,78.47
2023-02-05T11:22:00.046Z,81.93
2023-02-05T11:23:00.085Z,81.36
2023-02-05T11:24:00.089Z,81.92
2023-02-05T11:25:00.099Z,75.79
2023-02-05T11:26:00.101Z,71.94
2023-02-05T11:27:00.098Z,63.42
2023-02-05T11:28:00.271Z,58.31
2023-02-05T11:29:00.120Z,65.76
2023-02-05T11:30:00.147Z,70.74
2023-02-05T11:31:00.570Z,69.98
2023-02-05T11:32:00.369Z,71.69
2023-02-05T11:33:00.166Z,67.47
2023-02-05T11:34:00.172Z,66.55
2023-02-05T11:35:00.183Z,66.42
2023-02-05T11:36:00.198Z,66.94
2023-02-05T11:37:00.207Z,65.99
2023-02-05T11:38:00.216Z,63.23
2023-02-05T11:39:00.228Z,55.43
2023-02-05T11:40:00.239Z,54.19
2023-02-05T11:41:00.250Z,57.81
2023-02-05T11:42:00.258Z,56.31
2023-02-05T11:43:00.274Z,56.24
2023-02-05T11:44:00.287Z,54.25
2023-02-05T11:45:00.312Z,49.77
2023-02-05T11:46:00.318Z,49.77
2023-02-05T11:47:00.316Z,52.63
2023-02-05T11:48:00.334Z,59.05
2023-02-05T11:49:00.352Z,59.23
2023-02-05T11:50:00.355Z,58.47
2023-02-05T11:51:00.362Z,63.13
2023-02-05T11:52:00.368Z,57.62
2023-02-05T11:53:00.385Z,55.08
2023-02-05T11:54:00.400Z,53.11
2023-02-05T11:55:00.417Z,57.67
2023-02-05T11:56:00.417Z,57.77
2023-02-05T11:57:00.430Z,57.04
2023-02-05T11:58:00.436Z,55.16
2023-02-05T11:59:00.452Z,51.82
2023-02-05T12:00:00.556Z,51.14
2023-02-05T12:01:00.500Z,52.84
2023-02-05T12:02:00.579Z,53.04
2023-02-05T12:03:00.549Z,50.21
2023-02-05T12:04:00.539Z,48.94
2023-02-05T12:05:00.577Z,48.06
2023-02-05T12:06:00.567Z,47.87
2023-02-05T12:07:00.548Z,49.96
2023-02-05T12:08:00.553Z,50.73
2023-02-05T12:09:00.578Z,48.71
2023-02-05T12:10:00.589Z,50.54
2023-02-05T12:11:00.594Z,51.58
2023-02-05T12:12:00.602Z,50.32
2023-02-05T12:13:00.618Z,48.82
2023-02-05T12:14:00.625Z,48.03
2023-02-05T12:15:00.646Z,50.79
2023-02-05T12:16:00.680Z,52.32
2023-02-05T12:17:00.667Z,52.89
2023-02-05T12:18:00.707Z,53.96
2023-02-05T12:19:00.688Z,53.58
2023-02-05T12:20:00.696Z,49.87
2023-02-05T12:21:00.710Z,49.61
2023-02-05T12:22:00.720Z,50.46
2023-02-05T12:23:00.741Z,54.08
2023-02-05T12:24:00.742Z,56.31
2023-02-05T12:25:00.763Z,62.56
2023-02-05T12:26:00.773Z,61.61
2023-02-05T12:27:00.781Z,58.57
2023-02-05T12:28:00.842Z,55.46
2023-02-05T12:29:00.802Z,51.37
2023-02-05T12:30:00.829Z,49.96
2023-02-05T12:31:00.833Z,51.20
2023-02-05T12:32:00.844Z,54.06
2023-02-05T12:33:00.878Z,52.92
2023-02-05T12:34:00.885Z,52.15
2023-02-05T12:35:00.875Z,53.30
2023-02-05T12:36:00.883Z,54.72
2023-02-05T12:37:00.893Z,55.62
2023-02-05T12:38:00.906Z,56.29
2023-02-05T12:39:03.129Z,52.01
2023-02-05T12:40:00.944Z,50.23
2023-02-05T12:41:00.958Z,49.37
2023-02-05T12:42:00.957Z,52.70
2023-02-05T12:43:00.962Z,60.16
2023-02-05T12:44:00.977Z,60.18
2023-02-05T12:45:00.989Z,59.01
2023-02-05T12:46:01.056Z,58.06
2023-02-05T12:47:01.012Z,60.53
2023-02-05T12:48:01.025Z,60.53
2023-02-05T12:49:01.037Z,61.68
2023-02-05T12:50:01.069Z,60.94
2023-02-05T12:51:01.056Z,56.48
2023-02-05T12:52:01.073Z,54.41
2023-02-05T12:53:01.076Z,54.57